Aviation Digital Data Service (ADDS)

Output produced by METARs form (0345 UTC 23 November 2017)
found at http://www.aviationweather.gov/adds/metars/
 
TAF MMCS 221715Z 2218/2318 10015KT P6SM SCT120 SCT230 
     BECMG 2302/2303 00000KT 
     FM231500 12015KT P6SM SKC
       
TAF MMAA 222316Z 2300/2406 24005KT 5SM HZ SCT020 SCT300 TX30/2319Z TN24/2310Z 
     TEMPO 2303/2307 5SM RA SCT020CB BKN100 BKN300 
     FM230700 00000KT 5SM HZ SCT015 SCT300 
     FM231800 20010KT P6SM SCT025 
     BECMG 2402/2403 00000KT
       
TAF MMAN 221715Z 2218/2318 35015KT P6SM SKC 
     BECMG 2302/2303 02010KT 
     FM231500 04010KT P6SM SKC
       
TAF MMAS 221638Z 2218/2318 04010G20KT P6SM SKC 
     FM230400 04010KT P6SM SKC 
     FM231600 06010KT P6SM SKC
       
TAF MMBT 221629Z 2218/2318 16008KT 6SM HZ SCT030 SCT250 
     BECMG 2220/2221 BKN030 BKN200 
     TEMPO 2221/2301 4SM RA 
     FM230400 35005KT 6SM HZ SCT020 BKN200 
     FM231600 16006KT 6SM HZ BKN250
       
TAF MMCB 221629Z 2218/2318 16008KT P6SM SCT020 SCT200 
     BECMG 2223/2224 35006KT 
     FM230400 35006KT P6SM SKC 
     FM231600 06006KT P6SM SKC
       
TAF MMCE 221701Z 2218/2318 32010G20KT P6SM SCT020 BKN200 
     BECMG 2220/2221 6SM -RA BKN020 BKN100 OVC200 
     TEMPO 2300/2304 4SM TSRA BKN015CB 
     FM230400 30015KT P6SM -RA SCT020 BKN100 OVC200 
     TEMPO 2310/2314 4SM RA 
     FM231500 34018KT P6SM SCT250
       
TAF MMCL 221640Z 2218/2318 32015KT MP6SM SKC 
     BECMG 2302/2304 000000KT 
     FM231500 34010KT P6SM SKC
       
TAF MMCM 221701Z 2218/2318 14008KT P6SM SCT020 
     FM230200 29010KT P6SM SCT015 BKN020 
     TEMPO 2302/2306 4SM RA BKN010 OVC030 
     FM230900 27008KT 4SM BR HZ OVC010 
     TEMPO 2310/2314 1/2SM FG VV004 
     FM231500 27010KT 4SM HZ BKN010
       
TAF MMCN 221645Z 2218/2318 26010KT P6SM SCT250 
     FM230300 35005KT P6SM SKC 
     FM231600 16006KT P6SM SKC
       
TAF MMCP 221701Z 2218/2318 27012KT P6SM BKN020 BKN250 
     TEMPO 2221/2301 5SM RA 
     FM230200 30015KT P6SM -RA SCT020 BKN100 OVC200 
     TEMPO 2307/2311 4SM RA 
     FM231500 34018KT P6SM SCT020 BKN220 
     PROB40 2315/2318 5SM RA SCT020CB BKN100 BKN250
       
TAF MMCS 221715Z 2218/2318 10015KT P6SM SCT120 SCT230 
     BECMG 2302/2303 00000KT 
     FM231500 12015KT P6SM SKC
       
TAF MMCU 221715Z 2218/2318 04015KT P6SM SKC 
     BECMG 2302/2303 08010KT 
     FM231600 12010KT P6SM SKC
       
TAF MMCV 221709Z 2218/2318 34020KT P6SM SKC 
     FM230200 33012KT P6SM SKC 
     FM231500 35010KT P6SM SKC
       
TAF MMCZ 222330Z 2300/2406 16006KT P6SM SCT020 SCT250 
     TEMPO 2300/2304 5SM RA BKN020CB 
     FM230600 32005KT P6SM -RA BKN015CB 
     TEMPO 2306/2309 4SM TSRA 
     FM231000 24010KT P6SM BKN015 BKN080 
     FM231800 34010KT P6SM SCT015 BKN080 
     PROB40 2322/2402 5SM RA BKN015CB
       
TAF MMDO 221645Z 2218/2318 04012KT P6SM SCT220 
     FM230300 35005KT P6SM SCT250 
     FM231600 33010KT P6SM SKC
       
TAF MMEP 221638Z 2218/2318 33008KT P6SM SCT020 SCT250 
     FM230400 00000KT P6SM SCT015 
     FM231600 13008KT P6SM SCT250
       
TAF MMGL 222325Z 2300/2406 00000KT P6SM SKC TX26/2321Z TN07/2313Z 
     FM231800 10010KT P6SM SCT300 
     BECMG 2402/2403 10005KT
       
TAF MMGM 221645Z 2218/2318 25008KT P6SM SCT250 
     FM230300 35005KT P6SM SKC 
     FM231600 30008KT P6SM SKC
       
TAF MMHO 221640Z 2218/2318 29010KT P6SM SKC 
     BECMG 2301/2302 00000KT 
     FM231500 32010KT P6SM SKC
       
TAF MMIA 221638Z 2218/2318 24010KT P6SM SCT020 SCT200 
     BECMG 2222/2223 BKN015 
     FM230400 03006KT 6SM HZ SCT010 
     FM231500 07008KT P6SM SKC
       
TAF MMIO 221715Z 2218/2318 34015KT P6SM SKC 
     BECMG 2302/2303 00000KT 
     FM231600 04010KT P6SM SKC
       
TAF MMLM 221645Z 2218/2318 22010KT P6SM SCT250 
     FM230300 3108KT P6SM SCT250 
     FM231600 15008KT P6SM SKC
       
TAF MMLO 2218/2318 06010KT P6SM SCT250 
     TEMPO 2222/2302 06010G20KT 
     FM230400 06008KT P6SM SKC 
     FM231600 08010KT P6SM SKC
       
TAF MMLP 221640Z 2218/2318 04015KT P6SM SCT030 
     BECMG 2301/2302 00000KT 
     FM231500 02010KT P6SM SKC
       
TAF MMLT 221645Z 2218/2318 03015KT P6SM SCT250 
     FM230300 30008KT P6SM SCT250 
     FM231600 35010KT P6SM SKC
       
TAF AMD MMMA 221947Z 2220/2318 34020KT P6SM BKN025 
     BECMG 2222/2223 SCT025 
     FM230200 35015KT P6SM SKC 
     FM231500 34010KT P6SM SKC
       
TAF MMMD 222330Z 2300/2406 34010KT P6SM SCT020 SCT070 TX26/2321Z TN22/2312Z 
     TEMPO 2300/2304 5SM RA BKN015CB 
     FM230600 34015KT P6SM BKN015 BKN080 
     FM231200 36020KT P6SM -RA BKN015 BKN080 
     TEMPO 2318/2321 4SM RA 
     FM240300 32015KT P6SM -RA BKN015 BKN080
       
TAF MMML 221640Z 2218/2318 34015KT P6SM SKC 
     BECMG 2302/2303 00000KT 
     FM231500 36010KT P6SM SKC
       
TAF MMMM 222325Z 2300/2406 34005KT P6SM SKC 
     FM231200 00000KT 5SM HZ SKC 
     BECMG 2318/2319 34010KT 
     FM240200 34005KT P6SM SKC
       
TAF AMD MMMT 222032Z 2220/2318 34015G25KT P6SM SCT030 
     TEMPO 2221/2301 6SM -RA BKN030 
     FM230300 36015KT 6SM -RA BKN020 OVC040
       
TAF MMMV 220524Z 2206/2306 03005KT P6SM SCT250 
     FM221800 36014KT P6SM SCT030 BKN250 
     FM230500 02008KT P6SM SCT20
       
TAF MMMX 222316Z 2300/2406 02005KT P6SM SCT080 TX20/2320Z TN09/2312Z 
     TEMPO 2311/2315 2SM BR BKN006 
     FM231800 34010KT P6SM SKC 
     BECMG 2402/2403 02005KT
       
TAF MMMY 222317Z 2300/2406 35010KT P6SM SKC TX23/2320Z TN13/2312Z 
     FM230600 02005KT P6SM SKC 
     FM231200 02010KT P6SM SKC 
     FM231800 36010KT P6SM SKC 
     FM240300 06005KT P6SM SCT015
       
TAF MMMZ 222320Z 2300/2406 28010KT P6SM SCT230 TX31/2320Z TN17/2313Z 
     FM230600 34005KT P6SM SKC 
     FM231200 04005KT P6SM SCT230 
     TEMPO 2312/2315 SCT020 
     FM231800 24015KT P6SM SKC 
     FM240300 04005KT P6SM SKC
       
TAF MMNL 221709Z 2218/2318 34015KT P6SM SCT030 
     FM230200 35010KT P6SM SKC 
     FM231500 04010KT P6SM SKC
       
TAF MMOX 221629Z 2218/2318 04010KT P6SM BKN030 BKN080 
     BECMG 2220/2221 5SM -RA BKN020 OVC080 
     TEMPO 2222/2302 3SM TSRA BKN015CB OVC070 
     FM230900 03006KT P6SM BKN015 BKN070 BKN200 
     FM231500 04010KT P6SM SCT020 BKN220
       
TAF MMPA 221709Z 2218/2318 35015KT 5SM HZ SCT020 SCT070 
     FM230200 30010KT 4SM HZ BKN015 
     TEMPO 2310/2314 BKN010 
     FM231500 29008KT 5SM HZ SKC
       
TAF MMPB 221629Z 2218/2318 36015KT P6SM SKC 
     FM230300 03008KT P6SM SKC 
     FM231600 05010KT P6SM SKC
       
TAF MMPG 221709Z 2218/2318 34015KT P6SM SKC 
     FM230200 35010KT P6SM SCT250 
     BECMG 2306/2307 12006KT 
     FM231600 15010KT P6SM SKC
       
TAF MMPN 221638Z 2218/2318 20010KT P6SM SCT030 
     FM230400 35005KT P6SM SKC 
     FM231600 16008KT P6SM SKC
       
TAF MMPQ 221701Z 2218/2318 32015KT 4SM HZ SCT030 
     BECMG 2220/2221 BKN020 
     TEMPO 2221/2301 3SM RA 
     FM230300 26006KT 4SM HZ BKN015 BKN070 
     PROB40 2309/2313 2SM SHRA BKN010 OVC030 
     FM231500 30010KT 4SM HZ BKN020 BKN070
       
TAF MMPR 222325Z 2300/2406 19008KT P6SM SCT020 TX29/2318Z TN20/2312Z 
     FM231800 22010KT P6SM SCT250 
     BECMG 2402/2403 00000K
       
TAF MMPS 221629Z 2218/2318 25010KT P6SM SCT020 SCT250 
     TEMPO 2220/2224 5SM RA BKN020 BKN200 
     FM230400 02006KT P6SM SCT090 BKN220 
     FM231600 20006KT P6SM SCT10 SCT250
       
TAF MMQT 221638Z 2218/2318 08015KT P6SM SKC 
     FM230300 09008KT P6SM SKC 
     PROB40 2310/2314 4SM BR HZ 
     FM231500 08010KT P6SM SKC
       
TAF MMRX 221709Z 2218/2318 34010G20KT P6SM BKN030 
     BECMG 2220/221 SCT030 
     FM230200 35015KT P6SM SKC 
     FM231600 35010KT P6SM SKC
       
TAF MMSD 221645Z 2218/2318 13010KT P6SM SCT250 
     FM230300 29006KT P6SM SCT250 
     FM231700 13010KT P6SM SKC
       
TAF MMSL 221645Z 2218/2318 14010KT P6SM SCT250 
     FM230300 29006KT P6SM SCT250 
     FM231700 14010KT P6SM SKC
       
TAF MMSP 222325Z 2300/2406 03010KT P6SM SKC TX21/2320Z TN05/2312Z 
     TEMPO 2310/2314 2SM BR BKN010
     FM231800 07001KT P6SM SKC 
     BECMG 2402/2403 10005KT
       
TAF MMTC 221715Z 2218/2318 34015KT P6SM SKC 
     BECMG 2302/2304 00000KT 
     FM231600 03010KT P6SM SKC
       
TAF MMTG 221659Z 2218/2318 17015KT P6SM SCT030 SCT230 
     FM222200 20015KT P6SM BKN020 BKN230 
     BECMG 2302/2303 00000KT 
     FM231000 34010KT 3SM BR SCT010 
     FM231600 12010KT P6SM SCT020 SCT100
       
TAF MMTJ 222320Z 2300/2406 04005KT P6SM SKC TX35/2321Z TN15/2313Z 
     FM230600 00000KT P6SM SKC 
     FM231500 04010KT P6SM SKC 
     FM240300 07005KT P6SM SKC
       
TAF MMTM 221631Z 2218/2318 34015G25KT P6SM SKC 
     BECMG 2301/2302 02015KT 
     FM231000 06010KT P6SM BKN010 
     FM231600 10010KT P6SM SCT020
       
TAF MMTO 222316Z 2300/2406 08005KT P6SM BKN015 BKN070 TX20/2321Z TN02/2312Z 
     FM230200 04005KT 6SM HZ SCT015 
     TEMPO 2310/2314 3SM BR BKN010 
     FM231800 04010KT P6SM SKC 
     BECMG 2402/2403 04005KT
       
TAF MMTP 222330Z 2300/2406 32010KT P6SM SCT020 
     TEMPO 2302/2306 5SM RA BKN020 BKN080 
     FM231000 36015KT P6SM SCT020 BKN080 
     FM231600 34015KT P6SM -RA BKN020 BKN080 
     TEMPO 2321/2401 4SM RA
       
TAF MMUN 222330Z 2300/2406 16006KT P6SM SCT020 SCT250 TX26/2320Z TN17/2312Z 
     TEMPO 2300/2304 5M RA BKN020CB 
     FM230600 32005KT P6SM -RA BKN015CB 
     TEMPO 2306/2309 4SM TSRA 
     FM231000 24010KT P6SM BKN015 BKN080 
     FM231800 34010KT P6SM SCT015 BKN080 
     PROB40 2322/2402 5SM RA BKN015CB
       
TAF AMD MMVA 222040Z 2221/2318 34005KT 5SM HZ VC -RA BKN020CB 
     TEMPO 2221/2301 2SM SHRA BKN010 OVC030 
     FM230400 25015KT 2SM -RA BR OVC010 
     TEMPO 2310/2314 1SM -DZ BR BKN004 OVC010 
     FM231500 28012KT 4SM HZ BKN012
       
TAF COR MMVR 222001Z 2218/2318 02025G35KT P6SM BLSA SCT030 TX29/2221Z TN18/2312Z 
     TEMPO 2220/2224 5SM BLSA 
     FM230200 36015G25KT P6SM BKN030 BKN100 
     FM230600 29015KT P6SM BKN020CB OVC100 
     TEMPO 2306/2310 4SM TSRA 
     FM231200 02010KT P6SM SCT020CB BKN100 BKN230 
     FM231600 05010KT P6SM SCT015 SCT250
       
TAF MMZC 222325Z 2300/2406 02008KT P6SM SKC TX20/2321Z TN01/2312Z 
     FM231900 02015KT P6SM SCT240 
     BECMG 2402/2403 03006KT
       
TAF COR MMZH 230118Z 2218/2318 25008KT 6SM HZ SCT020 SCT090 SCT250 
     PROB40 2222/2302 5SM RA BKN015CB BKN250 
     FM230400 03006KT 6SM HZ BKN015 
     PROB40 2308/2312 5SM RA 
     FM231500 14006KT 6SM HZ SKC
       
TAF MMZO 221637Z 2218/2318 26015KT P6SM SKC 
     FM222300 29010KT P6SM SCT020 SCT100 
     BECMG 2305/2306 00000KT 
     FM231600 22010KT P6SM SCT020
       
TAF MMAA 222316Z 2300/2406 24005KT 5SM HZ SCT020 SCT300 TX30/2319Z TN24/2310Z 
     TEMPO 2303/2307 5SM RA SCT020CB BKN100 BKN300 
     FM230700 00000KT 5SM HZ SCT015 SCT300 
     FM231800 20010KT P6SM SCT025 
     BECMG 2402/2403 00000KT
       
TAF MMAN 221715Z 2218/2318 35015KT P6SM SKC 
     BECMG 2302/2303 02010KT 
     FM231500 04010KT P6SM SKC
       
TAF MMAS 221638Z 2218/2318 04010G20KT P6SM SKC 
     FM230400 04010KT P6SM SKC 
     FM231600 06010KT P6SM SKC
       
TAF MMBT 221629Z 2218/2318 16008KT 6SM HZ SCT030 SCT250 
     BECMG 2220/2221 BKN030 BKN200 
     TEMPO 2221/2301 4SM RA 
     FM230400 35005KT 6SM HZ SCT020 BKN200 
     FM231600 16006KT 6SM HZ BKN250
       
TAF MMCB 221629Z 2218/2318 16008KT P6SM SCT020 SCT200 
     BECMG 2223/2224 35006KT 
     FM230400 35006KT P6SM SKC 
     FM231600 06006KT P6SM SKC
       
TAF MMCE 221701Z 2218/2318 32010G20KT P6SM SCT020 BKN200 
     BECMG 2220/2221 6SM -RA BKN020 BKN100 OVC200 
     TEMPO 2300/2304 4SM TSRA BKN015CB 
     FM230400 30015KT P6SM -RA SCT020 BKN100 OVC200 
     TEMPO 2310/2314 4SM RA 
     FM231500 34018KT P6SM SCT250
       
TAF MMCL 221640Z 2218/2318 32015KT MP6SM SKC 
     BECMG 2302/2304 000000KT 
     FM231500 34010KT P6SM SKC
       
TAF MMCM 221701Z 2218/2318 14008KT P6SM SCT020 
     FM230200 29010KT P6SM SCT015 BKN020 
     TEMPO 2302/2306 4SM RA BKN010 OVC030 
     FM230900 27008KT 4SM BR HZ OVC010 
     TEMPO 2310/2314 1/2SM FG VV004 
     FM231500 27010KT 4SM HZ BKN010
       
TAF MMCN 221645Z 2218/2318 26010KT P6SM SCT250 
     FM230300 35005KT P6SM SKC 
     FM231600 16006KT P6SM SKC
       
TAF MMCP 221701Z 2218/2318 27012KT P6SM BKN020 BKN250 
     TEMPO 2221/2301 5SM RA 
     FM230200 30015KT P6SM -RA SCT020 BKN100 OVC200 
     TEMPO 2307/2311 4SM RA 
     FM231500 34018KT P6SM SCT020 BKN220 
     PROB40 2315/2318 5SM RA SCT020CB BKN100 BKN250
       
TAF MMCS 221715Z 2218/2318 10015KT P6SM SCT120 SCT230 
     BECMG 2302/2303 00000KT 
     FM231500 12015KT P6SM SKC
       
TAF MMCU 221715Z 2218/2318 04015KT P6SM SKC 
     BECMG 2302/2303 08010KT 
     FM231600 12010KT P6SM SKC
       
TAF MMCV 221709Z 2218/2318 34020KT P6SM SKC 
     FM230200 33012KT P6SM SKC 
     FM231500 35010KT P6SM SKC
       
TAF MMCZ 222330Z 2300/2406 16006KT P6SM SCT020 SCT250 
     TEMPO 2300/2304 5SM RA BKN020CB 
     FM230600 32005KT P6SM -RA BKN015CB 
     TEMPO 2306/2309 4SM TSRA 
     FM231000 24010KT P6SM BKN015 BKN080 
     FM231800 34010KT P6SM SCT015 BKN080 
     PROB40 2322/2402 5SM RA BKN015CB
       
TAF MMDO 221645Z 2218/2318 04012KT P6SM SCT220 
     FM230300 35005KT P6SM SCT250 
     FM231600 33010KT P6SM SKC
       
TAF MMEP 221638Z 2218/2318 33008KT P6SM SCT020 SCT250 
     FM230400 00000KT P6SM SCT015 
     FM231600 13008KT P6SM SCT250
       
TAF MMGL 222325Z 2300/2406 00000KT P6SM SKC TX26/2321Z TN07/2313Z 
     FM231800 10010KT P6SM SCT300 
     BECMG 2402/2403 10005KT
       
TAF MMGM 221645Z 2218/2318 25008KT P6SM SCT250 
     FM230300 35005KT P6SM SKC 
     FM231600 30008KT P6SM SKC
       
TAF MMHO 221640Z 2218/2318 29010KT P6SM SKC 
     BECMG 2301/2302 00000KT 
     FM231500 32010KT P6SM SKC
       
TAF MMIA 221638Z 2218/2318 24010KT P6SM SCT020 SCT200 
     BECMG 2222/2223 BKN015 
     FM230400 03006KT 6SM HZ SCT010 
     FM231500 07008KT P6SM SKC
       
TAF MMIO 221715Z 2218/2318 34015KT P6SM SKC 
     BECMG 2302/2303 00000KT 
     FM231600 04010KT P6SM SKC
       
TAF MMLM 221645Z 2218/2318 22010KT P6SM SCT250 
     FM230300 3108KT P6SM SCT250 
     FM231600 15008KT P6SM SKC
       
TAF MMLO 2218/2318 06010KT P6SM SCT250 
     TEMPO 2222/2302 06010G20KT 
     FM230400 06008KT P6SM SKC 
     FM231600 08010KT P6SM SKC
       
TAF MMLP 221640Z 2218/2318 04015KT P6SM SCT030 
     BECMG 2301/2302 00000KT 
     FM231500 02010KT P6SM SKC
       
TAF MMLT 221645Z 2218/2318 03015KT P6SM SCT250 
     FM230300 30008KT P6SM SCT250 
     FM231600 35010KT P6SM SKC
       
TAF AMD MMMA 221947Z 2220/2318 34020KT P6SM BKN025 
     BECMG 2222/2223 SCT025 
     FM230200 35015KT P6SM SKC 
     FM231500 34010KT P6SM SKC
       
TAF MMMD 222330Z 2300/2406 34010KT P6SM SCT020 SCT070 TX26/2321Z TN22/2312Z 
     TEMPO 2300/2304 5SM RA BKN015CB 
     FM230600 34015KT P6SM BKN015 BKN080 
     FM231200 36020KT P6SM -RA BKN015 BKN080 
     TEMPO 2318/2321 4SM RA 
     FM240300 32015KT P6SM -RA BKN015 BKN080
       
TAF MMML 221640Z 2218/2318 34015KT P6SM SKC 
     BECMG 2302/2303 00000KT 
     FM231500 36010KT P6SM SKC
       
TAF MMMM 222325Z 2300/2406 34005KT P6SM SKC 
     FM231200 00000KT 5SM HZ SKC 
     BECMG 2318/2319 34010KT 
     FM240200 34005KT P6SM SKC
       
TAF AMD MMMT 222032Z 2220/2318 34015G25KT P6SM SCT030 
     TEMPO 2221/2301 6SM -RA BKN030 
     FM230300 36015KT 6SM -RA BKN020 OVC040
       
TAF MMMV 220524Z 2206/2306 03005KT P6SM SCT250 
     FM221800 36014KT P6SM SCT030 BKN250 
     FM230500 02008KT P6SM SCT20
       
TAF MMMX 222316Z 2300/2406 02005KT P6SM SCT080 TX20/2320Z TN09/2312Z 
     TEMPO 2311/2315 2SM BR BKN006 
     FM231800 34010KT P6SM SKC 
     BECMG 2402/2403 02005KT
       
TAF MMMY 222317Z 2300/2406 35010KT P6SM SKC TX23/2320Z TN13/2312Z 
     FM230600 02005KT P6SM SKC 
     FM231200 02010KT P6SM SKC 
     FM231800 36010KT P6SM SKC 
     FM240300 06005KT P6SM SCT015
       
TAF MMMZ 222320Z 2300/2406 28010KT P6SM SCT230 TX31/2320Z TN17/2313Z 
     FM230600 34005KT P6SM SKC 
     FM231200 04005KT P6SM SCT230 
     TEMPO 2312/2315 SCT020 
     FM231800 24015KT P6SM SKC 
     FM240300 04005KT P6SM SKC
       
TAF MMNL 221709Z 2218/2318 34015KT P6SM SCT030 
     FM230200 35010KT P6SM SKC 
     FM231500 04010KT P6SM SKC
       
TAF MMOX 221629Z 2218/2318 04010KT P6SM BKN030 BKN080 
     BECMG 2220/2221 5SM -RA BKN020 OVC080 
     TEMPO 2222/2302 3SM TSRA BKN015CB OVC070 
     FM230900 03006KT P6SM BKN015 BKN070 BKN200 
     FM231500 04010KT P6SM SCT020 BKN220
       
TAF MMPA 221709Z 2218/2318 35015KT 5SM HZ SCT020 SCT070 
     FM230200 30010KT 4SM HZ BKN015 
     TEMPO 2310/2314 BKN010 
     FM231500 29008KT 5SM HZ SKC
       
TAF MMPB 221629Z 2218/2318 36015KT P6SM SKC 
     FM230300 03008KT P6SM SKC 
     FM231600 05010KT P6SM SKC
       
TAF MMPG 221709Z 2218/2318 34015KT P6SM SKC 
     FM230200 35010KT P6SM SCT250 
     BECMG 2306/2307 12006KT 
     FM231600 15010KT P6SM SKC
       
TAF MMPN 221638Z 2218/2318 20010KT P6SM SCT030 
     FM230400 35005KT P6SM SKC 
     FM231600 16008KT P6SM SKC
       
TAF MMPQ 221701Z 2218/2318 32015KT 4SM HZ SCT030 
     BECMG 2220/2221 BKN020 
     TEMPO 2221/2301 3SM RA 
     FM230300 26006KT 4SM HZ BKN015 BKN070 
     PROB40 2309/2313 2SM SHRA BKN010 OVC030 
     FM231500 30010KT 4SM HZ BKN020 BKN070
       
TAF MMPR 222325Z 2300/2406 19008KT P6SM SCT020 TX29/2318Z TN20/2312Z 
     FM231800 22010KT P6SM SCT250 
     BECMG 2402/2403 00000K
       
TAF MMPS 221629Z 2218/2318 25010KT P6SM SCT020 SCT250 
     TEMPO 2220/2224 5SM RA BKN020 BKN200 
     FM230400 02006KT P6SM SCT090 BKN220 
     FM231600 20006KT P6SM SCT10 SCT250
       
TAF MMQT 221638Z 2218/2318 08015KT P6SM SKC 
     FM230300 09008KT P6SM SKC 
     PROB40 2310/2314 4SM BR HZ 
     FM231500 08010KT P6SM SKC
       
TAF MMRX 221709Z 2218/2318 34010G20KT P6SM BKN030 
     BECMG 2220/221 SCT030 
     FM230200 35015KT P6SM SKC 
     FM231600 35010KT P6SM SKC
       
TAF MMSD 221645Z 2218/2318 13010KT P6SM SCT250 
     FM230300 29006KT P6SM SCT250 
     FM231700 13010KT P6SM SKC
       
TAF MMSL 221645Z 2218/2318 14010KT P6SM SCT250 
     FM230300 29006KT P6SM SCT250 
     FM231700 14010KT P6SM SKC
       
TAF MMSP 222325Z 2300/2406 03010KT P6SM SKC TX21/2320Z TN05/2312Z 
     TEMPO 2310/2314 2SM BR BKN010
     FM231800 07001KT P6SM SKC 
     BECMG 2402/2403 10005KT
       
TAF MMTC 221715Z 2218/2318 34015KT P6SM SKC 
     BECMG 2302/2304 00000KT 
     FM231600 03010KT P6SM SKC
       
TAF MMTG 221659Z 2218/2318 17015KT P6SM SCT030 SCT230 
     FM222200 20015KT P6SM BKN020 BKN230 
     BECMG 2302/2303 00000KT 
     FM231000 34010KT 3SM BR SCT010 
     FM231600 12010KT P6SM SCT020 SCT100
       
TAF MMTJ 222320Z 2300/2406 04005KT P6SM SKC TX35/2321Z TN15/2313Z 
     FM230600 00000KT P6SM SKC 
     FM231500 04010KT P6SM SKC 
     FM240300 07005KT P6SM SKC
       
TAF MMTM 221631Z 2218/2318 34015G25KT P6SM SKC 
     BECMG 2301/2302 02015KT 
     FM231000 06010KT P6SM BKN010 
     FM231600 10010KT P6SM SCT020
       
TAF MMTO 222316Z 2300/2406 08005KT P6SM BKN015 BKN070 TX20/2321Z TN02/2312Z 
     FM230200 04005KT 6SM HZ SCT015 
     TEMPO 2310/2314 3SM BR BKN010 
     FM231800 04010KT P6SM SKC 
     BECMG 2402/2403 04005KT
       
TAF MMTP 222330Z 2300/2406 32010KT P6SM SCT020 
     TEMPO 2302/2306 5SM RA BKN020 BKN080 
     FM231000 36015KT P6SM SCT020 BKN080 
     FM231600 34015KT P6SM -RA BKN020 BKN080 
     TEMPO 2321/2401 4SM RA
       
TAF MMUN 222330Z 2300/2406 16006KT P6SM SCT020 SCT250 TX26/2320Z TN17/2312Z 
     TEMPO 2300/2304 5M RA BKN020CB 
     FM230600 32005KT P6SM -RA BKN015CB 
     TEMPO 2306/2309 4SM TSRA 
     FM231000 24010KT P6SM BKN015 BKN080 
     FM231800 34010KT P6SM SCT015 BKN080 
     PROB40 2322/2402 5SM RA BKN015CB
       
TAF AMD MMVA 222040Z 2221/2318 34005KT 5SM HZ VC -RA BKN020CB 
     TEMPO 2221/2301 2SM SHRA BKN010 OVC030 
     FM230400 25015KT 2SM -RA BR OVC010 
     TEMPO 2310/2314 1SM -DZ BR BKN004 OVC010 
     FM231500 28012KT 4SM HZ BKN012
       
TAF COR MMVR 222001Z 2218/2318 02025G35KT P6SM BLSA SCT030 TX29/2221Z TN18/2312Z 
     TEMPO 2220/2224 5SM BLSA 
     FM230200 36015G25KT P6SM BKN030 BKN100 
     FM230600 29015KT P6SM BKN020CB OVC100 
     TEMPO 2306/2310 4SM TSRA 
     FM231200 02010KT P6SM SCT020CB BKN100 BKN230 
     FM231600 05010KT P6SM SCT015 SCT250
       
TAF MMZC 222325Z 2300/2406 02008KT P6SM SKC TX20/2321Z TN01/2312Z 
     FM231900 02015KT P6SM SCT240 
     BECMG 2402/2403 03006KT
       
TAF COR MMZH 230118Z 2218/2318 25008KT 6SM HZ SCT020 SCT090 SCT250 
     PROB40 2222/2302 5SM RA BKN015CB BKN250 
     FM230400 03006KT 6SM HZ BKN015 
     PROB40 2308/2312 5SM RA 
     FM231500 14006KT 6SM HZ SKC
       
TAF MMZO 221637Z 2218/2318 26015KT P6SM SKC 
     FM222300 29010KT P6SM SCT020 SCT100 
     BECMG 2305/2306 00000KT 
     FM231600 22010KT P6SM SCT020
       
TAF MMBT 221629Z 2218/2318 16008KT 6SM HZ SCT030 SCT250 
     BECMG 2220/2221 BKN030 BKN200 
     TEMPO 2221/2301 4SM RA 
     FM230400 35005KT 6SM HZ SCT020 BKN200 
     FM231600 16006KT 6SM HZ BKN250
       
TAF AMD MMVA 222040Z 2221/2318 34005KT 5SM HZ VC -RA BKN020CB 
     TEMPO 2221/2301 2SM SHRA BKN010 OVC030 
     FM230400 25015KT 2SM -RA BR OVC010 
     TEMPO 2310/2314 1SM -DZ BR BKN004 OVC010 
     FM231500 28012KT 4SM HZ BKN012
       
TAF MMUN 222330Z 2300/2406 16006KT P6SM SCT020 SCT250 TX26/2320Z TN17/2312Z 
     TEMPO 2300/2304 5M RA BKN020CB 
     FM230600 32005KT P6SM -RA BKN015CB 
     TEMPO 2306/2309 4SM TSRA 
     FM231000 24010KT P6SM BKN015 BKN080 
     FM231800 34010KT P6SM SCT015 BKN080 
     PROB40 2322/2402 5SM RA BKN015CB
       
TAF MMCM 221701Z 2218/2318 14008KT P6SM SCT020 
     FM230200 29010KT P6SM SCT015 BKN020 
     TEMPO 2302/2306 4SM RA BKN010 OVC030 
     FM230900 27008KT 4SM BR HZ OVC010 
     TEMPO 2310/2314 1/2SM FG VV004 
     FM231500 27010KT 4SM HZ BKN010
       
TAF MMCE 221701Z 2218/2318 32010G20KT P6SM SCT020 BKN200 
     BECMG 2220/2221 6SM -RA BKN020 BKN100 OVC200 
     TEMPO 2300/2304 4SM TSRA BKN015CB 
     FM230400 30015KT P6SM -RA SCT020 BKN100 OVC200 
     TEMPO 2310/2314 4SM RA 
     FM231500 34018KT P6SM SCT250
       
TAF MMCN 221645Z 2218/2318 26010KT P6SM SCT250 
     FM230300 35005KT P6SM SKC 
     FM231600 16006KT P6SM SKC
       
TAF MMCV 221709Z 2218/2318 34020KT P6SM SKC 
     FM230200 33012KT P6SM SKC 
     FM231500 35010KT P6SM SKC
       
TAF MMCZ 222330Z 2300/2406 16006KT P6SM SCT020 SCT250 
     TEMPO 2300/2304 5SM RA BKN020CB 
     FM230600 32005KT P6SM -RA BKN015CB 
     TEMPO 2306/2309 4SM TSRA 
     FM231000 24010KT P6SM BKN015 BKN080 
     FM231800 34010KT P6SM SCT015 BKN080 
     PROB40 2322/2402 5SM RA BKN015CB
       
TAF MMCB 221629Z 2218/2318 16008KT P6SM SCT020 SCT200 
     BECMG 2223/2224 35006KT 
     FM230400 35006KT P6SM SKC 
     FM231600 06006KT P6SM SKC
       
TAF MMCL 221640Z 2218/2318 32015KT MP6SM SKC 
     BECMG 2302/2304 000000KT 
     FM231500 34010KT P6SM SKC
       
TAF MMLO 2218/2318 06010KT P6SM SCT250 
     TEMPO 2222/2302 06010G20KT 
     FM230400 06008KT P6SM SKC 
     FM231600 08010KT P6SM SKC
       
TAF MMAN 221715Z 2218/2318 35015KT P6SM SKC 
     BECMG 2302/2303 02010KT 
     FM231500 04010KT P6SM SKC
       
TAF MMGL 222325Z 2300/2406 00000KT P6SM SKC TX26/2321Z TN07/2313Z 
     FM231800 10010KT P6SM SCT300 
     BECMG 2402/2403 10005KT
       
TAF MMDO 221645Z 2218/2318 04012KT P6SM SCT220 
     FM230300 35005KT P6SM SCT250 
     FM231600 33010KT P6SM SKC
       
TAF MMTG 221659Z 2218/2318 17015KT P6SM SCT030 SCT230 
     FM222200 20015KT P6SM BKN020 BKN230 
     BECMG 2302/2303 00000KT 
     FM231000 34010KT 3SM BR SCT010 
     FM231600 12010KT P6SM SCT020 SCT100
       
TAF MMTJ 222320Z 2300/2406 04005KT P6SM SKC TX35/2321Z TN15/2313Z 
     FM230600 00000KT P6SM SKC 
     FM231500 04010KT P6SM SKC 
     FM240300 07005KT P6SM SKC
       
TAF MMMM 222325Z 2300/2406 34005KT P6SM SKC 
     FM231200 00000KT 5SM HZ SKC 
     BECMG 2318/2319 34010KT 
     FM240200 34005KT P6SM SKC
       
TAF MMTM 221631Z 2218/2318 34015G25KT P6SM SKC 
     BECMG 2301/2302 02015KT 
     FM231000 06010KT P6SM BKN010 
     FM231600 10010KT P6SM SCT020
       
TAF COR MMVR 222001Z 2218/2318 02025G35KT P6SM BLSA SCT030 TX29/2221Z TN18/2312Z 
     TEMPO 2220/2224 5SM BLSA 
     FM230200 36015G25KT P6SM BKN030 BKN100 
     FM230600 29015KT P6SM BKN020CB OVC100 
     TEMPO 2306/2310 4SM TSRA 
     FM231200 02010KT P6SM SCT020CB BKN100 BKN230 
     FM231600 05010KT P6SM SCT015 SCT250
       
TAF MMHO 221640Z 2218/2318 29010KT P6SM SKC 
     BECMG 2301/2302 00000KT 
     FM231500 32010KT P6SM SKC
       
TAF MMGM 221645Z 2218/2318 25008KT P6SM SCT250 
     FM230300 35005KT P6SM SKC 
     FM231600 30008KT P6SM SKC
       
TAF MMAA 222316Z 2300/2406 24005KT 5SM HZ SCT020 SCT300 TX30/2319Z TN24/2310Z 
     TEMPO 2303/2307 5SM RA SCT020CB BKN100 BKN300 
     FM230700 00000KT 5SM HZ SCT015 SCT300 
     FM231800 20010KT P6SM SCT025 
     BECMG 2402/2403 00000KT
       
TAF MMZC 222325Z 2300/2406 02008KT P6SM SKC TX20/2321Z TN01/2312Z 
     FM231900 02015KT P6SM SCT240 
     BECMG 2402/2403 03006KT
       
TAF MMRX 221709Z 2218/2318 34010G20KT P6SM BKN030 
     BECMG 2220/221 SCT030 
     FM230200 35015KT P6SM SKC 
     FM231600 35010KT P6SM SKC
       
TAF MMLP 221640Z 2218/2318 04015KT P6SM SCT030 
     BECMG 2301/2302 00000KT 
     FM231500 02010KT P6SM SKC
       
TAF MMMY 222317Z 2300/2406 35010KT P6SM SKC TX23/2320Z TN13/2312Z 
     FM230600 02005KT P6SM SKC 
     FM231200 02010KT P6SM SKC 
     FM231800 36010KT P6SM SKC 
     FM240300 06005KT P6SM SCT015
       
TAF MMCU 221715Z 2218/2318 04015KT P6SM SKC 
     BECMG 2302/2303 08010KT 
     FM231600 12010KT P6SM SKC
       
TAF MMMZ 222320Z 2300/2406 28010KT P6SM SCT230 TX31/2320Z TN17/2313Z 
     FM230600 34005KT P6SM SKC 
     FM231200 04005KT P6SM SCT230 
     TEMPO 2312/2315 SCT020 
     FM231800 24015KT P6SM SKC 
     FM240300 04005KT P6SM SKC
       
TAF MMML 221640Z 2218/2318 34015KT P6SM SKC 
     BECMG 2302/2303 00000KT 
     FM231500 36010KT P6SM SKC
       
TAF AMD MMMA 221947Z 2220/2318 34020KT P6SM BKN025 
     BECMG 2222/2223 SCT025 
     FM230200 35015KT P6SM SKC 
     FM231500 34010KT P6SM SKC
       
TAF MMPB 221629Z 2218/2318 36015KT P6SM SKC 
     FM230300 03008KT P6SM SKC 
     FM231600 05010KT P6SM SKC
       
TAF MMCP 221701Z 2218/2318 27012KT P6SM BKN020 BKN250 
     TEMPO 2221/2301 5SM RA 
     FM230200 30015KT P6SM -RA SCT020 BKN100 OVC200 
     TEMPO 2307/2311 4SM RA 
     FM231500 34018KT P6SM SCT020 BKN220 
     PROB40 2315/2318 5SM RA SCT020CB BKN100 BKN250
       
TAF MMQT 221638Z 2218/2318 08015KT P6SM SKC 
     FM230300 09008KT P6SM SKC 
     PROB40 2310/2314 4SM BR HZ 
     FM231500 08010KT P6SM SKC
       
TAF COR MMZH 230118Z 2218/2318 25008KT 6SM HZ SCT020 SCT090 SCT250 
     PROB40 2222/2302 5SM RA BKN015CB BKN250 
     FM230400 03006KT 6SM HZ BKN015 
     PROB40 2308/2312 5SM RA 
     FM231500 14006KT 6SM HZ SKC
       
TAF MMAS 221638Z 2218/2318 04010G20KT P6SM SKC 
     FM230400 04010KT P6SM SKC 
     FM231600 06010KT P6SM SKC
       
TAF MMTO 222316Z 2300/2406 08005KT P6SM BKN015 BKN070 TX20/2321Z TN02/2312Z 
     FM230200 04005KT 6SM HZ SCT015 
     TEMPO 2310/2314 3SM BR BKN010 
     FM231800 04010KT P6SM SKC 
     BECMG 2402/2403 04005KT
       
TAF MMMX 222316Z 2300/2406 02005KT P6SM SCT080 TX20/2320Z TN09/2312Z 
     TEMPO 2311/2315 2SM BR BKN006 
     FM231800 34010KT P6SM SKC 
     BECMG 2402/2403 02005KT
       
TAF MMPR 222325Z 2300/2406 19008KT P6SM SCT020 TX29/2318Z TN20/2312Z 
     FM231800 22010KT P6SM SCT250 
     BECMG 2402/2403 00000K
       
TAF MMMD 222330Z 2300/2406 34010KT P6SM SCT020 SCT070 TX26/2321Z TN22/2312Z 
     TEMPO 2300/2304 5SM RA BKN015CB 
     FM230600 34015KT P6SM BKN015 BKN080 
     FM231200 36020KT P6SM -RA BKN015 BKN080 
     TEMPO 2318/2321 4SM RA 
     FM240300 32015KT P6SM -RA BKN015 BKN080
       
TAF MMPN 221638Z 2218/2318 20010KT P6SM SCT030 
     FM230400 35005KT P6SM SKC 
     FM231600 16008KT P6SM SKC
       
TAF MMLT 221645Z 2218/2318 03015KT P6SM SCT250 
     FM230300 30008KT P6SM SCT250 
     FM231600 35010KT P6SM SKC
       
TAF MMSD 221645Z 2218/2318 13010KT P6SM SCT250 
     FM230300 29006KT P6SM SCT250 
     FM231700 13010KT P6SM SKC
       
TAF AMD MMMT 222032Z 2220/2318 34015G25KT P6SM SCT030 
     TEMPO 2221/2301 6SM -RA BKN030 
     FM230300 36015KT 6SM -RA BKN020 OVC040
       
TAF MMMV 220524Z 2206/2306 03005KT P6SM SCT250 
     FM221800 36014KT P6SM SCT030 BKN250 
     FM230500 02008KT P6SM SCT20
       
TAF MMPG 221709Z 2218/2318 34015KT P6SM SKC 
     FM230200 35010KT P6SM SCT250 
     BECMG 2306/2307 12006KT 
     FM231600 15010KT P6SM SKC
       
TAF MMIO 221715Z 2218/2318 34015KT P6SM SKC 
     BECMG 2302/2303 00000KT 
     FM231600 04010KT P6SM SKC
       
TAF MMZO 221637Z 2218/2318 26015KT P6SM SKC 
     FM222300 29010KT P6SM SCT020 SCT100 
     BECMG 2305/2306 00000KT 
     FM231600 22010KT P6SM SCT020
       
TAF MMSP 222325Z 2300/2406 03010KT P6SM SKC TX21/2320Z TN05/2312Z 
     TEMPO 2310/2314 2SM BR BKN010
     FM231800 07001KT P6SM SKC 
     BECMG 2402/2403 10005KT
       
TAF MMPS 221629Z 2218/2318 25010KT P6SM SCT020 SCT250 
     TEMPO 2220/2224 5SM RA BKN020 BKN200 
     FM230400 02006KT P6SM SCT090 BKN220 
     FM231600 20006KT P6SM SCT10 SCT250
       
TAF MMNL 221709Z 2218/2318 34015KT P6SM SCT030 
     FM230200 35010KT P6SM SKC 
     FM231500 04010KT P6SM SKC
       
TAF MMTP 222330Z 2300/2406 32010KT P6SM SCT020 
     TEMPO 2302/2306 5SM RA BKN020 BKN080 
     FM231000 36015KT P6SM SCT020 BKN080 
     FM231600 34015KT P6SM -RA BKN020 BKN080 
     TEMPO 2321/2401 4SM RA
       
TAF MMEP 221638Z 2218/2318 33008KT P6SM SCT020 SCT250 
     FM230400 00000KT P6SM SCT015 
     FM231600 13008KT P6SM SCT250
       
TAF MMTC 221715Z 2218/2318 34015KT P6SM SKC 
     BECMG 2302/2304 00000KT 
     FM231600 03010KT P6SM SKC
       
TAF MMLM 221645Z 2218/2318 22010KT P6SM SCT250 
     FM230300 3108KT P6SM SCT250 
     FM231600 15008KT P6SM SKC
       
TAF MMOX 221629Z 2218/2318 04010KT P6SM BKN030 BKN080 
     BECMG 2220/2221 5SM -RA BKN020 OVC080 
     TEMPO 2222/2302 3SM TSRA BKN015CB OVC070 
     FM230900 03006KT P6SM BKN015 BKN070 BKN200 
     FM231500 04010KT P6SM SCT020 BKN220